Tiempo atmosférico en la estación meteorológica de Areso, Navarra (520 m.)



Fecha
DESCASC
Temp. máxima en grados centígrados (hora)
DESCASC
Temp. mínima en grados centígrados (hora)
DESCASC
Temp. media en grados centígrados
DESCASC
Racha de viento máxima en m/sg (hora)
DESCASC
Velocidad máxima media en intervalos de 10 minutos(hora)
DESCASC
Precipitaciones diarias en mm
DESCASC
Precipitaciones de 00:00 a 06:00 en mm
DESCASC
Precipitaciones de 06:00 a 12:00 en mm
DESCASC
Precipitaciones de 12:00 a 18:00 en mm
DESCASC
Precipitaciones de 18:00 a 24:00 en mm
DESCASC
26-11-2020 14.5 (15:00) 10.2 (03:40) 12.3 15.83 (01:10) 7.22 (13:30) 0 0 0 0 0
25-11-2020 13.1 (15:30) 8 (09:20) 10.6 14.17 (00:10) 8.89 (00:10) 0 0 0 0 0
24-11-2020 12.5 (13:50) 8.4 (07:50) 10.4 15.56 (23:00) 8.89 (23:10) 0 0 0 0 0
23-11-2020 14.1 (14:20) 2.1 (07:40) 8.1 5.28 (23:59) 2.78 (23:59) 0 0 0 0 0
22-11-2020 16 (14:40) 3.8 (00:00) 9.9 13.06 (05:40) 7.22 (05:50) 0 0 0 0 0
21-11-2020 14.7 (14:50) -0.5 (-00:0) 7.1 10.28 (23:30) 5 (23:30) 0 0 0 0 0
20-11-2020 10.3 (12:10) 2.7 (00:00) 6.5 5.28 (15:10) 2.22 (12:30) 0.8 0.2 0.6 0 0
19-11-2020 12.1 (09:00) 7.2 (00:00) 9.7 5.56 (16:40) 2.5 (16:50) 5 0 3 1.6 0.4
18-11-2020 20.6 (14:20) 9.5 (00:00) 15.1 12.22 (05:30) 6.67 (04:40) 0 0 0 0 0
17-11-2020 20.8 (14:20) 4.4 (00:00) 12.6 11.11 (22:40) 6.94 (22:40) 0 0 0 0 0
16-11-2020 12.3 (16:00) 5.1 (00:00) 8.7 3.61 (04:30) 1.39 (14:20) 5.6 3.8 1.6 0.2 0
15-11-2020 18.6 (14:10) 9.8 (00:00) 14.2 14.72 (09:00) 7.22 (09:00) 8.8 0 0 0.2 8.6
14-11-2020 13.9 (16:00) 10.1 (00:00) 12 18.33 (02:50) 10.83 (03:00) 0 0 0 0 0
13-11-2020 16.2 (13:00) 10.7 (00:00) 13.5 15.83 (00:20) 9.72 (04:30) 0 0 0 0 0
12-11-2020 18.3 (14:30) 7.6 (00:00) 12.9 13.89 (23:20) 7.78 (23:50) 0 0 0 0 0
11-11-2020 15.5 (15:20) 7 (00:00) 11.3 14.72 (11:40) 8.33 (11:40) 0 0 0 0 0
10-11-2020 14.5 (12:40) 7.1 (00:00) 10.8 3.33 (12:20) 1.67 (12:20) 0.4 0 0.4 0 0
09-11-2020 17.6 (14:20) 8.3 (00:00) 13 11.67 (07:10) 7.22 (07:10) 0 0 0 0 0
08-11-2020 15.7 (15:30) 11.6 (00:00) 13.7 13.89 (12:30) 7.78 (08:50) 0 0 0 0 0
07-11-2020 17.5 (00:00) 12.6 (00:00) 15.1 14.44 (11:20) 6.39 (12:30) 5.2 0 5.2 0 0
06-11-2020 18 (13:50) 12.7 (00:00) 15.3 17.5 (14:20) 9.72 (14:40) 0 0 0 0 0
05-11-2020 16.2 (14:40) 4 (00:00) 10.1 11.67 (13:10) 5.83 (22:20) 0 0 0 0 0
04-11-2020 8.6 (13:00) 2.9 (00:00) 5.8 4.72 (14:30) 1.94 (14:10) 0.8 0.6 0 0 0.2
03-11-2020 10.9 (12:30) 6.2 (00:00) 8.5 6.11 (15:20) 2.5 (17:20) 11 2 1.6 5.6 1.8
02-11-2020 21 (11:40) 10.7 (00:00) 15.8 10.28 (03:50) 5.56 (05:40) 2.2 0 0 0.4 1.8
01-11-2020 22.6 (14:00) 12.5 (00:00) 17.6 8.89 (22:20) 4.72 (22:30) 0 0 0 0 0
31-10-2020 22.8 (13:40) 12.3 (00:00) 17.5 8.33 (12:00) 5 (11:50) 0 0 0 0 0
30-10-2020 21.2 (15:40) 12.3 (00:00) 16.8 10 (01:40) 5.28 (22:30) 0 0 0 0 0

Gráficas

Temp. máximas Temp. mínimas Temp. medias Precipitaciones Rachas de viento máximas Velocidades máximas media en intervalos de 10 minutos

Datos horarios

Fecha y hora oficial Temperatura (ºC) Velocidad del viento (km/h) Dirección del viento Racha (km/h) Dirección de racha Precipitación (mm) Presión (hPa) Tendencia (hPa) Humedad (%)
2020-11-28 23:00:00 8 0 Calma 6 Noroeste 0 -- -- 88
2020-11-28 22:00:00 8.4 3 Norte 6 Noroeste 0 -- -- 86
2020-11-28 21:00:00 8.4 2 Noroeste 8 Noroeste 0 -- -- 84
2020-11-28 20:00:00 9.5 2 Sur 8 Sudeste 0 -- -- 80
2020-11-28 19:00:00 10.3 0 Calma 6 Sudeste 0 -- -- 76
2020-11-28 18:00:00 11.5 3 Sudoeste 17 Sudoeste 0 -- -- 71
2020-11-28 17:00:00 13.3 10 Sudoeste 22 Sudoeste 0 -- -- 64
2020-11-28 16:00:00 15 14 Sudoeste 23 Sudoeste 0 -- -- 57
2020-11-28 15:00:00 15.6 13 Sudoeste 23 Sudoeste 0 -- -- 54
2020-11-28 14:00:00 16.2 4 Sur 8 Sur 0 -- -- 58
2020-11-28 13:00:00 14.1 3 Este 5 Este 0 -- -- 66
2020-11-28 12:00:00 10.5 0 Calma 3 Sur 0 -- -- 92
2020-11-28 11:00:00 8.4 0 Calma 2 Sur 0 -- -- 95
2020-11-28 10:00:00 6.9 0 Calma -- -- 0 -- -- 100
2020-11-28 09:00:00 5.7 0 Calma 0 Calma 0 -- -- 99
2020-11-28 08:00:00 5.7 0 Calma 2 Sur 0 -- -- 98
2020-11-28 07:00:00 6 0 Calma 2 Sur 0 -- -- 98
2020-11-28 06:00:00 6.3 0 Calma 2 Sur 0 -- -- 96
2020-11-28 05:00:00 6.3 2 Oeste 4 Oeste 0 -- -- 96
2020-11-28 04:00:00 6.2 0 Calma -- -- 0 -- -- 96
2020-11-28 03:00:00 6.6 0 Calma 0 Calma 0 -- -- 94
2020-11-28 02:00:00 6.7 0 Calma 2 Nordeste 0 -- -- 94
2020-11-28 01:00:00 7 0 Calma 2 Sur 0 -- -- 92
2020-11-28 00:00:00 7.2 0 Calma 2 Sur 0 -- -- 91
2020-11-27 23:00:00 7.4 0 Calma 2 Sur 0 -- -- 89
2020-11-27 22:00:00 7.9 0 Calma 3 Sudeste 0 -- -- 88
2020-11-27 21:00:00 8.3 0 Calma 3 Norte 0 -- -- 86
2020-11-27 20:00:00 9.2 0 Calma 3 Noroeste 0 -- -- 82
2020-11-27 19:00:00 10.9 0 Calma 8 Sur 0 -- -- 77
2020-11-27 18:00:00 12.7 2 Oeste 13 Sudoeste 0 -- -- 70
2020-11-27 17:00:00 13.7 5 Sudoeste 14 Sudeste 0 -- -- 68
2020-11-27 16:00:00 14.6 6 Sudeste 23 Oeste 0 -- -- 62
2020-11-27 15:00:00 15.5 12 Sudoeste 26 Sudoeste 0 -- -- 57
2020-11-27 14:00:00 13.7 10 Sudoeste 30 Sudoeste 0 -- -- 65
2020-11-27 13:00:00 13.5 11 Sudoeste 30 Sudoeste 0 -- -- 66
2020-11-27 12:00:00 14.5 15 Sudoeste 27 Sur 0 -- -- 64
2020-11-27 11:00:00 13.3 7 Sudoeste 16 Sur 0 -- -- 68
2020-11-27 10:00:00 12 0 Calma 19 Sudoeste 0 -- -- 73
2020-11-27 09:00:00 12.1 12 Sudoeste 29 Sudoeste 0 -- -- 72
2020-11-27 08:00:00 11.9 8 Sudoeste 29 Sur 0 -- -- 72
2020-11-27 07:00:00 12 4 Sudoeste 30 Sur 0 -- -- 75
2020-11-27 06:00:00 12.1 6 Sur 29 Sudoeste 0 -- -- 76
2020-11-27 05:00:00 12.4 8 Sudoeste 29 Oeste 0 -- -- 74
2020-11-27 04:00:00 12.4 14 Sudoeste 25 Sudoeste 0 -- -- 71
2020-11-27 03:00:00 12.5 9 Este 34 Este 0 -- -- 70
2020-11-27 02:00:00 12.5 6 Sur 39 Sudoeste 0 -- -- 71
2020-11-27 01:00:00 12.7 20 Sudoeste 43 Sudoeste 0 -- -- 69
2020-11-27 00:00:00 12.4 15 Sudoeste 41 Sur 0 -- -- 72
2020-11-26 23:00:00 12.3 17 Sur 32 Sudoeste 0 -- -- 73
2020-11-26 22:00:00 11.9 9 Sur 23 Sur 0 -- -- 73
2020-11-26 21:00:00 11.8 8 Sur 21 Sudoeste 0 -- -- 75
2020-11-26 20:00:00 12 6 Sur 16 Sudeste 0 -- -- 76
2020-11-26 19:00:00 12.2 5 Sudoeste 18 Este 0 -- -- 77
2020-11-26 18:00:00 12.8 5 Sur 33 Oeste 0 -- -- 73
2020-11-26 17:00:00 13.4 12 Sudoeste 31 Sudoeste 0 -- -- 70
2020-11-26 16:00:00 13.5 5 Sur 32 Sur 0 -- -- 70
2020-11-26 15:00:00 14.5 10 Sudeste 43 Sudoeste 0 -- -- 68
2020-11-26 14:00:00 13.6 22 Sudoeste 49 Sudoeste 0 -- -- 70
2020-11-26 13:00:00 13.1 8 Sudeste 40 Sudeste 0 -- -- 69
2020-11-26 12:00:00 12.7 12 Sur 35 Sudoeste 0 -- -- 69
2020-11-26 11:00:00 12 16 Sudoeste 54 Sur 0 -- -- 71
2020-11-26 10:00:00 11.5 14 Sudeste 40 Sur 0 -- -- 72
2020-11-26 09:00:00 11 13 Sudeste 36 Sur 0 -- -- 73
2020-11-26 08:00:00 10.8 14 Sudoeste 32 Sudoeste 0 -- -- 74
2020-11-26 07:00:00 10.6 9 Sur 41 Sur 0 -- -- 74
2020-11-26 06:00:00 10.5 24 Sur 53 Sur 0 -- -- 75
2020-11-26 05:00:00 10.5 17 Sudeste 44 Sur 0 -- -- 75
2020-11-26 04:00:00 10.2 8 Sudeste 35 Sudeste 0 -- -- 77
2020-11-26 03:00:00 10.6 15 Sudeste 48 Sur 0 -- -- 74
2020-11-26 02:00:00 10.6 18 Sudeste 57 Sudoeste 0 -- -- 73
2020-11-26 01:00:00 10.7 18 Sur 47 Sudoeste 0 -- -- 72
2020-11-26 00:00:00 10.8 18 Sur 44 Sur 0 -- -- 71
2020-11-25 23:00:00 10.6 11 Sur 48 Sur 0 -- -- 71
2020-11-25 22:00:00 10.7 9 Sudeste 31 Sur 0 -- -- 68
2020-11-25 21:00:00 10.2 3 Nordeste 31 Sudeste 0 -- -- 69
2020-11-25 20:00:00 11 10 Sudeste 37 Sur 0 -- -- 64
2020-11-25 19:00:00 11 3 Sudeste 24 Sudeste 0 -- -- 64
2020-11-25 18:00:00 11.4 4 Sudoeste 23 Sudoeste 0 -- -- 60
2020-11-25 17:00:00 12 11 Sudoeste 30 Sudoeste 0 -- -- 57
2020-11-25 16:00:00 12.8 12 Sudoeste 39 Sudoeste 0 -- -- 54
2020-11-25 15:00:00 12.8 23 Sudoeste 50 Sudoeste 0 -- -- 57
2020-11-25 14:00:00 12.6 18 Sudoeste 51 Sudoeste 0 -- -- 60
2020-11-25 13:00:00 12.1 12 Sudoeste 36 Sur 0 -- -- 62
2020-11-25 12:00:00 11.4 8 Sudoeste 48 Sur 0 -- -- 68
2020-11-25 11:00:00 10.1 12 Sudoeste 44 Sur 0 -- -- 71
2020-11-25 10:00:00 8.4 20 Sudoeste 42 Sudoeste 0 -- -- 80
2020-11-25 09:00:00 8.4 5 Norte 30 Noroeste 0 -- -- 81
2020-11-25 08:00:00 8.5 7 Norte 32 Oeste 0 -- -- 81
2020-11-25 07:00:00 8.5 18 Oeste 34 Oeste 0 -- -- 80
2020-11-25 06:00:00 8.1 9 Oeste 43 Oeste 0 -- -- 82
2020-11-25 05:00:00 8.3 8 Noroeste 38 Este 0 -- -- 80
2020-11-25 04:00:00 8.4 19 Sur 44 Sur 0 -- -- 76
2020-11-25 03:00:00 8.7 19 Sudoeste 46 Sudoeste 0 -- -- 72
2020-11-25 02:00:00 9.1 21 Sudoeste 45 Sudoeste 0 -- -- 69
2020-11-25 01:00:00 9.6 29 Sudoeste 51 Sur 0 -- -- 62
2020-11-25 00:00:00 9.8 23 Sudoeste 54 Sur 0 -- -- 58
2020-11-24 23:00:00 9.8 31 Sur 56 Sudoeste 0 -- -- 57
2020-11-24 22:00:00 9.8 20 Sudoeste 51 Sur 0 -- -- 59
2020-11-24 21:00:00 9.7 11 Sur 34 Sur 0 -- -- 58
2020-11-24 20:00:00 10 15 Sudoeste 33 Sudoeste 0 -- -- 60
2020-11-24 19:00:00 10.3 17 Sudoeste 30 Sur 0 -- -- 59
2020-11-24 18:00:00 10.7 8 Sudoeste 33 Sur 0 -- -- 59
2020-11-24 17:00:00 11.4 15 Sudoeste 33 Sudoeste 0 -- -- 58
2020-11-24 16:00:00 12.5 16 Sudoeste 27 Sudoeste 0 -- -- 55
2020-11-24 15:00:00 12.2 19 Sudoeste 36 Sudoeste 0 -- -- 55
2020-11-24 14:00:00 12.4 22 Sudoeste 40 Sudoeste 0 -- -- 53
2020-11-24 13:00:00 11.9 28 Sudoeste 42 Sudoeste 0 -- -- 51
2020-11-24 12:00:00 12 27 Sudoeste 44 Sudoeste 0 -- -- 50
2020-11-24 11:00:00 11.1 25 Sudoeste 46 Sudoeste 0 -- -- 51
2020-11-24 10:00:00 9.8 17 Sudoeste 36 Sudoeste 0 -- -- 56
2020-11-24 09:00:00 8.7 9 Oeste 33 Oeste 0 -- -- 62
2020-11-24 08:00:00 8.6 16 Sudoeste 35 Oeste 0 -- -- 62
2020-11-24 07:00:00 8.6 15 Sudoeste 34 Sudoeste 0 -- -- 61
2020-11-24 06:00:00 9.2 17 Oeste 37 Oeste 0 -- -- 53
2020-11-24 05:00:00 9.3 10 Oeste 30 Oeste 0 -- -- 54
2020-11-24 04:00:00 9.4 12 Oeste 28 Sudoeste 0 -- -- 58
2020-11-24 03:00:00 9.7 13 Oeste 30 Oeste 0 -- -- 61
2020-11-24 02:00:00 10 7 Oeste 25 Sudoeste 0 -- -- 59
2020-11-24 01:00:00 9.5 8 Oeste 32 Sudoeste 0 -- -- 63
2020-11-24 00:00:00 8.9 10 Oeste 19 Oeste 0 -- -- 67
2020-11-23 23:00:00 4.7 0 Calma 3 Sudeste 0 -- -- 86
2020-11-23 22:00:00 5 0 Calma 3 Este 0 -- -- 88
2020-11-23 21:00:00 5.3 0 Calma 2 Sur 0 -- -- 88
2020-11-23 20:00:00 6.1 0 Calma 0 Calma 0 -- -- 86
2020-11-23 19:00:00 7.4 0 Calma 2 Sudoeste 0 -- -- 82
2020-11-23 18:00:00 9.4 0 Calma 3 Oeste 0 -- -- 74
2020-11-23 17:00:00 11.9 0 Calma 6 Nordeste 0 -- -- 66
2020-11-23 16:00:00 13.2 4 Nordeste 10 Nordeste 0 -- -- 57
2020-11-23 15:00:00 13.9 5 Nordeste 9 Este 0 -- -- 52
2020-11-23 14:00:00 13.1 2 Nordeste 9 Este 0 -- -- 55
2020-11-23 13:00:00 12.9 4 Sudoeste 8 Sudoeste 0 -- -- 63
2020-11-23 12:00:00 10.8 0 Calma 5 Sudoeste 0 -- -- 76
2020-11-23 11:00:00 7.7 0 Calma 3 Sudoeste 0 -- -- 95
2020-11-23 10:00:00 4.2 0 Calma -- -- 0 -- -- 100
2020-11-23 09:00:00 2.5 0 Calma 0 Calma 0 -- -- 100
2020-11-23 08:00:00 2.1 0 Calma 2 Noroeste 0 -- -- 100
2020-11-23 07:00:00 2.3 0 Calma 0 Calma 0 -- -- 100
2020-11-23 06:00:00 2.7 0 Calma -- -- 0 -- -- 100
2020-11-23 05:00:00 2.9 0 Calma -- -- 0 -- -- 100
2020-11-23 04:00:00 2.6 0 Calma -- -- 0 -- -- 98
2020-11-23 03:00:00 2.9 0 Calma 0 Calma 0 -- -- 97
2020-11-23 02:00:00 3.2 0 Calma 2 Noroeste 0 -- -- 94
2020-11-23 01:00:00 3.5 0 Calma 4 Oeste 0 -- -- 93
2020-11-23 00:00:00 3.8 0 Calma 0 Calma 0 -- -- 90
2020-11-22 23:00:00 4.2 0 Calma 0 Calma 0 -- -- 88
2020-11-22 22:00:00 4.7 0 Calma 0 Calma 0 -- -- 86
2020-11-22 21:00:00 5.1 0 Calma 0 Calma 0 -- -- 84
2020-11-22 20:00:00 6 0 Calma 2 Nordeste 0 -- -- 79
2020-11-22 19:00:00 7.5 0 Calma 2 Nordeste 0 -- -- 72
2020-11-22 18:00:00 9.4 0 Calma 2 Este 0 -- -- 66
2020-11-22 17:00:00 13.5 0 Calma 3 Oeste 0 -- -- 52
2020-11-22 16:00:00 15.3 3 Sudoeste 8 Este 0 -- -- 48
2020-11-22 15:00:00 15.4 3 Este 12 Sudoeste 0 -- -- 47
2020-11-22 14:00:00 15.6 9 Sudoeste 16 Sudoeste 0 -- -- 43
2020-11-22 13:00:00 14.9 12 Sudoeste 15 Sudoeste 0 -- -- 42
2020-11-22 12:00:00 14.5 5 Sudoeste 8 Sudoeste 0 -- -- 42
2020-11-22 11:00:00 12.8 2 Sudoeste 14 Oeste 0 -- -- 45
2020-11-22 10:00:00 11.2 9 Sudoeste 27 Sudoeste 0 -- -- 37
2020-11-22 09:00:00 9.5 16 Sudoeste 37 Sudoeste 0 -- -- 38
2020-11-22 08:00:00 9.4 9 Oeste 32 Sudoeste 0 -- -- 37
2020-11-22 07:00:00 9.5 19 Sudoeste 38 Sudoeste 0 -- -- 42
2020-11-22 06:00:00 9.5 23 Sudoeste 47 Sudoeste 0 -- -- 42
2020-11-22 05:00:00 9.8 24 Sudoeste 42 Sur 0 -- -- 43
2020-11-22 04:00:00 9.8 13 Oeste 38 Sur 0 -- -- 46
2020-11-22 03:00:00 9.9 14 Sur 32 Sur 0 -- -- 46
2020-11-22 02:00:00 9.9 5 Sudeste 22 Sudeste 0 -- -- 45
2020-11-22 01:00:00 10.5 5 Oeste 28 Sudoeste 0 -- -- 37
2020-11-22 00:00:00 9.8 7 Sur 37 Sur 0 -- -- 39
2020-11-21 23:00:00 9.4 17 Sudoeste 28 Sudoeste 0 -- -- 47
2020-11-21 22:00:00 6.8 4 Oeste 11 Noroeste 0 -- -- 63
2020-11-21 21:00:00 3.6 3 Este 8 Noroeste 0 -- -- 89
2020-11-21 20:00:00 4.4 0 Calma 5 Noroeste 0 -- -- 85
2020-11-21 19:00:00 5.2 0 Calma 0 Calma 0 -- -- 84
2020-11-21 18:00:00 7 0 Calma 3 Oeste 0 -- -- 77
2020-11-21 17:00:00 9.7 2 Oeste 11 Nordeste 0 -- -- 66
2020-11-21 16:00:00 12.2 3 Este 12 Nordeste 0 -- -- 61
2020-11-21 15:00:00 14.6 3 Este 13 Este 0 -- -- 29
2020-11-21 14:00:00 13.8 4 Este 10 Este 0 -- -- 30
2020-11-21 13:00:00 11.8 4 Sudeste 10 Este 0 -- -- 41
2020-11-21 12:00:00 9.4 3 Noroeste 8 Noroeste 0 -- -- 49
2020-11-21 11:00:00 5.4 0 Calma 4 Sudoeste 0 -- -- 88
2020-11-21 10:00:00 1.8 0 Calma 0 Calma 0 -- -- 100
2020-11-21 09:00:00 -0.1 0 Calma 2 Sudoeste 0 -- -- 100
2020-11-21 08:00:00 -0.5 0 Calma 0 Calma 0 -- -- 100
2020-11-21 07:00:00 -0.2 0 Calma 2 Sudoeste 0 -- -- 100
2020-11-21 06:00:00 0.2 0 Calma 2 Sudoeste 0 -- -- 100
2020-11-21 05:00:00 0.4 0 Calma 2 Sudoeste 0 -- -- 100
2020-11-21 04:00:00 0.7 0 Calma 2 Sudoeste 0 -- -- 100
2020-11-21 03:00:00 1.1 0 Calma 2 Sudoeste 0 -- -- 100
2020-11-21 02:00:00 1.7 0 Calma 2 Sudoeste 0 -- -- 99
2020-11-21 01:00:00 2.5 0 Calma 5 Sudoeste 0 -- -- 99
2020-11-21 00:00:00 2.8 0 Calma 3 Noroeste 0 -- -- 99
2020-11-20 23:00:00 3.1 0 Calma 2 Noroeste 0 -- -- 99
2020-11-20 22:00:00 3.7 0 Calma 2 Noroeste 0 -- -- 98
2020-11-20 21:00:00 4.1 0 Calma 2 Noroeste 0 -- -- 97
2020-11-20 20:00:00 4.5 0 Calma 3 Noroeste 0 -- -- 94
2020-11-20 19:00:00 5.3 0 Calma 3 Nordeste 0 -- -- 91
2020-11-20 18:00:00 6.7 3 Noroeste 7 Nordeste 0 -- -- 84
2020-11-20 17:00:00 8.5 0 Calma 16 Noroeste 0 -- -- 74
2020-11-20 16:00:00 10 5 Norte 19 Nordeste 0 -- -- 67
2020-11-20 15:00:00 10.1 6 Este 15 Este 0 -- -- 70
2020-11-20 14:00:00 10.3 4 Este 15 Nordeste 0 -- -- 75
2020-11-20 13:00:00 9.8 4 Este 17 Nordeste 0 -- -- 80
2020-11-20 12:00:00 10.1 5 Este 15 Nordeste 0 -- -- 76
2020-11-20 11:00:00 9 3 Nordeste 9 Este 0 -- -- 82
2020-11-20 10:00:00 7.9 2 Nordeste 10 Nordeste 0 -- -- 94
2020-11-20 09:00:00 7.3 0 Calma 6 Este 0 -- -- 100
2020-11-20 08:00:00 7.1 0 Calma 6 Oeste 0 -- -- 100
2020-11-20 07:00:00 7 3 Sudoeste 10 Este 0.6 -- -- 100
2020-11-20 06:00:00 6.7 0 Calma 6 Sur 0.2 -- -- 100
2020-11-20 05:00:00 6.6 0 Calma 3 Este 0 -- -- 100
2020-11-20 04:00:00 6.6 0 Calma 2 Noroeste 0 -- -- 100
2020-11-20 03:00:00 6.8 0 Calma 4 Nordeste 0 -- -- 100
2020-11-20 02:00:00 6.9 0 Calma 3 Sur 0 -- -- 100
2020-11-20 01:00:00 7.2 0 Calma 6 Este 0 -- -- 100
2020-11-20 00:00:00 7.2 0 Calma 6 Sudeste 0.2 -- -- 100
2020-11-19 23:00:00 7.5 2 Este 16 Norte 0.2 -- -- 100
2020-11-19 22:00:00 7.5 6 Este 13 Sudeste 0 -- -- 100
2020-11-19 21:00:00 7.6 0 Calma 6 Este 0 -- -- 100
2020-11-19 20:00:00 7.6 0 Calma 4 Sur 0 -- -- 100
2020-11-19 19:00:00 7.7 0 Calma 7 Nordeste 0 -- -- 100
2020-11-19 18:00:00 7.9 2 Este 14 Norte 0.4 -- -- 99
2020-11-19 17:00:00 8.3 5 Este 20 Este 0.2 -- -- 99
2020-11-19 16:00:00 9 8 Este 18 Este 0.6 -- -- 99
2020-11-19 15:00:00 9.5 4 Sur 17 Este 0.2 -- -- 97
2020-11-19 14:00:00 10.6 4 Este 13 Nordeste 0.2 -- -- 98
2020-11-19 13:00:00 11 3 Sudeste 18 Nordeste 0 -- -- 98
2020-11-19 12:00:00 11 4 Este 16 Este 0.2 -- -- 97
2020-11-19 11:00:00 11.5 3 Oeste 13 Noroeste 0.2 -- -- 98
2020-11-19 10:00:00 12 5 Sudeste 18 Noroeste 0.6 -- -- 100
2020-11-19 09:00:00 12.1 8 Sudoeste 15 Sur 1.2 -- -- 100
2020-11-19 08:00:00 11.7 0 Calma 4 Noroeste 0.6 -- -- 99
2020-11-19 07:00:00 11.7 2 Norte 6 Este 0.2 -- -- 99
2020-11-19 06:00:00 10.7 5 Este 10 Este 0 -- -- 97
2020-11-19 05:00:00 9.9 0 Calma 3 Sudeste 0 -- -- 95
2020-11-19 04:00:00 9.2 0 Calma 3 Noroeste 0 -- -- 96
2020-11-19 03:00:00 9 0 Calma 3 Noroeste 0 -- -- 96
2020-11-19 02:00:00 9.3 0 Calma 3 Nordeste 0 -- -- 95
2020-11-19 01:00:00 9.5 0 Calma 2 Sudeste 0 -- -- 94
2020-11-19 00:00:00 9.5 0 Calma 2 Sudeste 0 -- -- 93
2020-11-18 23:00:00 10.1 0 Calma 2 Este 0 -- -- 91
2020-11-18 22:00:00 10.4 0 Calma 0 Calma 0 -- -- 90
2020-11-18 21:00:00 10.9 0 Calma 2 Este 0 -- -- 88
2020-11-18 20:00:00 11.8 0 Calma 2 Sudeste 0 -- -- 85
2020-11-18 19:00:00 12.9 0 Calma 5 Norte 0 -- -- 81
2020-11-18 18:00:00 14.9 0 Calma 4 Nordeste 0 -- -- 73
2020-11-18 17:00:00 18.8 0 Calma 8 Oeste 0 -- -- 57
2020-11-18 16:00:00 20 5 Sudoeste 10 Oeste 0 -- -- 54
2020-11-18 15:00:00 20.4 6 Sudoeste 12 Sudoeste 0 -- -- 57
2020-11-18 14:00:00 20.3 6 Sudoeste 15 Sudoeste 0 -- -- 51
2020-11-18 13:00:00 19.2 9 Sudoeste 19 Sudoeste 0 -- -- 55
2020-11-18 12:00:00 17.5 12 Sudoeste 23 Sudoeste 0 -- -- 57
2020-11-18 11:00:00 16.1 11 Sudoeste 24 Sudoeste 0 -- -- 59
2020-11-18 10:00:00 14.5 14 Sudoeste 32 Sudoeste 0 -- -- 62
2020-11-18 09:00:00 12.7 14 Oeste 29 Sudoeste 0 -- -- 66
2020-11-18 08:00:00 12.9 12 Oeste 29 Sudoeste 0 -- -- 64
2020-11-18 07:00:00 13.7 14 Sudoeste 35 Sur 0 -- -- 59
2020-11-18 06:00:00 13.7 12 Sudoeste 44 Sudoeste 0 -- -- 60
2020-11-18 05:00:00 13.2 20 Sudoeste 43 Sudoeste 0 -- -- 61
2020-11-18 04:00:00 13 21 Sudoeste 36 Sudoeste 0 -- -- 62
2020-11-18 03:00:00 13.7 13 Sudoeste 38 Sur 0 -- -- 57
2020-11-18 02:00:00 13.8 19 Sudoeste 38 Sudoeste 0 -- -- 57
2020-11-18 01:00:00 13.6 16 Oeste 34 Oeste 0 -- -- 55
2020-11-18 00:00:00 13.6 15 Oeste 34 Sudoeste 0 -- -- 54
2020-11-17 23:00:00 14.2 21 Sudoeste 40 Sudoeste 0 -- -- 49
2020-11-17 22:00:00 14.5 18 Sudoeste 36 Sudoeste 0 -- -- 46
2020-11-17 21:00:00 14.1 14 Oeste 27 Oeste 0 -- -- 49
2020-11-17 20:00:00 14.4 8 Oeste 30 Sur 0 -- -- 51
2020-11-17 19:00:00 14.6 15 Sudoeste 31 Sudoeste 0 -- -- 52
2020-11-17 18:00:00 14.8 3 Sudoeste 14 Sur 0 -- -- 48
2020-11-17 17:00:00 17.3 4 Sudeste 18 Sudoeste 0 -- -- 36
2020-11-17 16:00:00 19.7 7 Sudoeste 13 Sudoeste 0 -- -- 42
2020-11-17 15:00:00 20.2 6 Sudoeste 13 Sudoeste 0 -- -- 42
2020-11-17 14:00:00 20.5 0 Calma 5 Noroeste 0 -- -- 42
2020-11-17 13:00:00 18.4 0 Calma -- -- 0 -- -- 45
2020-11-17 12:00:00 15 0 Calma -- -- 0 -- -- 59
2020-11-17 11:00:00 11.5 0 Calma -- -- 0 -- -- 68
2020-11-17 10:00:00 7.5 0 Calma -- -- 0 -- -- 85
2020-11-17 09:00:00 4.8 0 Calma -- -- 0 -- -- 92
2020-11-17 08:00:00 4.8 0 Calma -- -- 0 -- -- 93
2020-11-17 07:00:00 4.8 0 Calma -- -- 0 -- -- 99
2020-11-17 06:00:00 4.8 0 Calma 2 Noroeste 0 -- -- 100
2020-11-17 05:00:00 4.7 0 Calma 2 Noroeste 0 -- -- 100
2020-11-17 04:00:00 4.9 0 Calma -- -- 0 -- -- 100
2020-11-17 03:00:00 4.9 0 Calma -- -- 0 -- -- 100
2020-11-17 02:00:00 4.9 0 Calma 3 Noroeste 0 -- -- 100
2020-11-17 01:00:00 5.1 0 Calma 2 Noroeste 0 -- -- 100
2020-11-17 00:00:00 5.3 0 Calma 5 Noroeste 0 -- -- 100
2020-11-16 23:00:00 5.3 0 Calma 0 Calma 0 -- -- 100
2020-11-16 22:00:00 5.8 0 Calma 3 Noroeste 0 -- -- 99
2020-11-16 21:00:00 6.1 0 Calma 3 Noroeste 0 -- -- 98
2020-11-16 20:00:00 6.9 0 Calma 2 Noroeste 0 -- -- 97
2020-11-16 19:00:00 8 0 Calma 3 Noroeste 0 -- -- 94
2020-11-16 18:00:00 9.3 0 Calma 4 Norte 0 -- -- 88
2020-11-16 17:00:00 11.4 2 Norte 9 Noroeste 0 -- -- 78
2020-11-16 16:00:00 12.3 0 Calma 9 Noroeste 0 -- -- 76
2020-11-16 15:00:00 11.6 3 Norte 12 Nordeste 0 -- -- 84
2020-11-16 14:00:00 11.7 0 Calma 8 Este 0 -- -- 89
2020-11-16 13:00:00 11.3 2 Nordeste 7 Este 0.2 -- -- 94
2020-11-16 12:00:00 10.8 3 Nordeste 10 Este 0.4 -- -- 94
2020-11-16 11:00:00 11.8 0 Calma 10 Norte 0 -- -- 96
2020-11-16 10:00:00 10.1 0 Calma 9 Este 0 -- -- 100
2020-11-16 09:00:00 9.5 0 Calma 4 Sudeste 0.4 -- -- 100
2020-11-16 08:00:00 9.2 0 Calma 9 Este 0.4 -- -- 100
2020-11-16 07:00:00 9.2 2 Sur 11 Sudoeste 0.4 -- -- 100
2020-11-16 06:00:00 9.6 0 Calma 4 Sur 0.8 -- -- 100
2020-11-16 05:00:00 9.6 0 Calma 13 Este 0.8 -- -- 100
2020-11-16 04:00:00 9.7 0 Calma -- -- 1 -- -- 100
2020-11-16 03:00:00 9.8 0 Calma 5 Este 0.6 -- -- 100
2020-11-16 02:00:00 9.8 0 Calma 4 Este 0 -- -- 100
2020-11-16 01:00:00 9.8 0 Calma 2 Nordeste 0.6 -- -- 100
2020-11-16 00:00:00 9.8 0 Calma 5 Noroeste 0.2 -- -- 100
2020-11-15 23:00:00 9.9 0 Calma 19 Este 1 -- -- 99
2020-11-15 22:00:00 10.7 6 Sur 16 Este 2 -- -- 99
2020-11-15 21:00:00 11.8 4 Este 13 Este 2.2 -- -- 99
2020-11-15 20:00:00 12.3 2 Este 11 Sudeste 2.8 -- -- 99
2020-11-15 19:00:00 12.5 3 Nordeste 13 Nordeste 0.4 -- -- 97
2020-11-15 18:00:00 13.2 3 Norte 12 Este 0.2 -- -- 96
2020-11-15 17:00:00 14.4 5 Nordeste 11 Nordeste 0 -- -- 93
2020-11-15 16:00:00 16 7 Este 26 Noroeste 0 -- -- 84
2020-11-15 15:00:00 18.6 8 Sudoeste 30 Sur 0 -- -- 64
2020-11-15 14:00:00 18.5 11 Oeste 38 Sudoeste 0 -- -- 64
2020-11-15 13:00:00 17.1 14 Sudoeste 42 Sudoeste 0 -- -- 68
2020-11-15 12:00:00 16.6 23 Sudoeste 44 Sudoeste 0 -- -- 67
2020-11-15 11:00:00 16.2 23 Sudoeste 41 Sur 0 -- -- 68
2020-11-15 10:00:00 14.9 23 Sudoeste 44 Sur 0 -- -- 72
2020-11-15 09:00:00 14.6 26 Sudoeste 53 Sudoeste 0 -- -- 71
2020-11-15 08:00:00 12.9 18 Sudoeste 41 Sudoeste 0 -- -- 79
2020-11-15 07:00:00 13.2 13 Sudoeste 37 Sur 0 -- -- 78
2020-11-15 06:00:00 13.6 14 Sudoeste 39 Sur 0 -- -- 74
2020-11-15 05:00:00 13.8 14 Sudoeste 41 Sur 0 -- -- 74
2020-11-15 04:00:00 14.4 22 Sudoeste 38 Sudoeste 0 -- -- 71
2020-11-15 03:00:00 13.3 15 Sur 29 Sur 0 -- -- 77
2020-11-15 02:00:00 13.2 13 Sur 45 Sur 0 -- -- 78
2020-11-15 01:00:00 13.8 17 Sur 37 Sudoeste 0 -- -- 75
2020-11-15 00:00:00 12.8 13 Sur 37 Sur 0 -- -- 80
2020-11-14 23:00:00 13 22 Sudoeste 48 Sudoeste 0 -- -- 78
2020-11-14 22:00:00 13.5 29 Sudoeste 46 Sudoeste 0 -- -- 75
2020-11-14 21:00:00 13 15 Sudoeste 37 Sur 0 -- -- 78
2020-11-14 20:00:00 12.9 18 Sudoeste 45 Sur 0 -- -- 77
2020-11-14 19:00:00 12.7 21 Sudoeste 47 Sudoeste 0 -- -- 77
2020-11-14 18:00:00 12.9 22 Sudoeste 48 Sur 0 -- -- 76
2020-11-14 17:00:00 13.2 23 Sur 44 Sur 0 -- -- 74
2020-11-14 16:00:00 13.9 16 Sur 36 Sudoeste 0 -- -- 73
2020-11-14 15:00:00 12.9 26 Sur 50 Sur 0 -- -- 74
2020-11-14 14:00:00 12.7 15 Sur 55 Sur 0 -- -- 76
2020-11-14 13:00:00 12.2 32 Sudoeste 53 Sudoeste 0 -- -- 78
2020-11-14 12:00:00 11.9 29 Sur 50 Sur 0 -- -- 81
2020-11-14 11:00:00 10.9 20 Sur 46 Sur 0 -- -- 85
2020-11-14 10:00:00 11.4 17 Sur 58 Sudoeste 0 -- -- 81
2020-11-14 09:00:00 10.3 19 Sur 37 Sur 0 -- -- 83
2020-11-14 08:00:00 10.1 7 Sudoeste 33 Sudoeste 0 -- -- 80
2020-11-14 07:00:00 10.3 13 Sudoeste 31 Oeste 0 -- -- 74
2020-11-14 06:00:00 11 16 Sudoeste 47 Sudoeste 0 -- -- 68
2020-11-14 05:00:00 10.9 21 Sudoeste 39 Sur 0 -- -- 69
2020-11-14 04:00:00 10.7 14 Sur 55 Sur 0 -- -- 72
2020-11-14 03:00:00 11.6 39 Sur 66 Sur 0 -- -- 67
2020-11-14 02:00:00 11.2 29 Sur 54 Sudoeste 0 -- -- 69
2020-11-14 01:00:00 10.7 9 Oeste 35 Sur 0 -- -- 75
2020-11-14 00:00:00 10.7 16 Sur 46 Sur 0 -- -- 77
2020-11-13 23:00:00 11.1 14 Sur 38 Sudeste 0 -- -- 72
2020-11-13 22:00:00 11.2 15 Sur 36 Sur 0 -- -- 71
2020-11-13 21:00:00 11.8 21 Sudoeste 37 Sudoeste 0 -- -- 68
2020-11-13 20:00:00 12.3 18 Sudoeste 45 Sudoeste 0 -- -- 69
2020-11-13 19:00:00 12.9 20 Sudoeste 31 Sudoeste 0 -- -- 66
2020-11-13 18:00:00 13.2 21 Sudoeste 36 Sudoeste 0 -- -- 66
2020-11-13 17:00:00 14.2 14 Sudoeste 26 Sur 0 -- -- 62
2020-11-13 16:00:00 15.7 12 Sudoeste 27 Sur 0 -- -- 59
2020-11-13 15:00:00 15.8 14 Sudoeste 33 Sudoeste 0 -- -- 61
2020-11-13 14:00:00 15.8 17 Sudoeste 41 Sudoeste 0 -- -- 60
2020-11-13 13:00:00 16.2 4 Este 34 Sudoeste 0 -- -- 62
2020-11-13 12:00:00 14.8 19 Sudoeste 39 Sudoeste 0 -- -- 61
2020-11-13 11:00:00 14 15 Sudoeste 32 Sudoeste 0 -- -- 65
2020-11-13 10:00:00 13.5 14 Sudoeste 37 Sudoeste 0 -- -- 66
2020-11-13 09:00:00 11.8 22 Sudoeste 36 Sur 0 -- -- 72
2020-11-13 08:00:00 11.3 4 Sur 31 Sur 0 -- -- 74
2020-11-13 07:00:00 11.3 23 Sur 45 Sudoeste 0 -- -- 73
2020-11-13 06:00:00 11.2 20 Sur 50 Sur 0 -- -- 73
2020-11-13 05:00:00 11.8 33 Sudoeste 53 Sudoeste 0 -- -- 70
2020-11-13 04:00:00 11.9 21 Sur 45 Sur 0 -- -- 65
2020-11-13 03:00:00 12 28 Sur 49 Sur 0 -- -- 65
2020-11-13 02:00:00 12.3 23 Sur 50 Sudoeste 0 -- -- 66
2020-11-13 01:00:00 12.3 33 Sudoeste 57 Sudoeste 0 -- -- 67
2020-11-13 00:00:00 12.5 26 Sudoeste 50 Sur 0 -- -- 65
2020-11-12 23:00:00 12.7 23 Sudoeste 48 Sur 0 -- -- 65
2020-11-12 22:00:00 13.1 17 Sudoeste 44 Sudoeste 0 -- -- 63
2020-11-12 21:00:00 13.5 22 Sudoeste 39 Sudoeste 0 -- -- 60
2020-11-12 20:00:00 13.7 16 Sudoeste 37 Sur 0 -- -- 59
2020-11-12 19:00:00 13.6 10 Sudoeste 27 Sudeste 0 -- -- 59
2020-11-12 18:00:00 14.1 14 Sudoeste 33 Sudoeste 0 -- -- 57
2020-11-12 17:00:00 15.4 20 Sudoeste 35 Sur 0 -- -- 52
2020-11-12 16:00:00 17.5 12 Sudoeste 27 Sudoeste 0 -- -- 53
2020-11-12 15:00:00 18 12 Sudoeste 27 Sudoeste 0 -- -- 56
2020-11-12 14:00:00 17.8 8 Sudoeste 17 Sudoeste 0 -- -- 56
2020-11-12 13:00:00 16.9 8 Sudoeste 21 Sudoeste 0 -- -- 59
2020-11-12 12:00:00 15.9 9 Sudoeste 19 Oeste 0 -- -- 63
2020-11-12 11:00:00 14.6 4 Oeste 12 Sudeste 0 -- -- 68
2020-11-12 10:00:00 11.7 4 Oeste 10 Oeste 0 -- -- 79
2020-11-12 09:00:00 7.8 0 Calma 4 Norte 0 -- -- 92
2020-11-12 08:00:00 7.9 0 Calma 7 Noroeste 0 -- -- 89
2020-11-12 07:00:00 9.8 5 Noroeste 12 Noroeste 0 -- -- 81
2020-11-12 06:00:00 9.6 0 Calma 17 Sudoeste 0 -- -- 81
2020-11-12 05:00:00 10.4 3 Oeste 22 Sudoeste 0 -- -- 77
2020-11-12 04:00:00 10.8 5 Noroeste 13 Oeste 0 -- -- 76
2020-11-12 03:00:00 11.1 0 Calma 14 Oeste 0 -- -- 77
2020-11-12 02:00:00 11.6 8 Oeste 21 Sudoeste 0 -- -- 74
2020-11-12 01:00:00 11.6 10 Oeste 19 Sudoeste 0 -- -- 74
2020-11-12 00:00:00 12 10 Sudoeste 29 Sudoeste 0 -- -- 72
2020-11-11 23:00:00 12.3 13 Sudoeste 32 Sudoeste 0 -- -- 71
2020-11-11 22:00:00 12.7 17 Sudoeste 36 Sur 0 -- -- 70
2020-11-11 21:00:00 13.3 14 Sudoeste 33 Sudoeste 0 -- -- 64
2020-11-11 20:00:00 13 17 Sudoeste 30 Sudoeste 0 -- -- 68
2020-11-11 19:00:00 13.1 19 Sudoeste 31 Sudoeste 0 -- -- 70
2020-11-11 18:00:00 13.8 10 Sudoeste 32 Sudoeste 0 -- -- 63
2020-11-11 17:00:00 14 16 Sur 35 Sudoeste 0 -- -- 69
2020-11-11 16:00:00 15.4 14 Sur 39 Sur 0 -- -- 62
2020-11-11 15:00:00 15.2 24 Sudoeste 40 Sudoeste 0 -- -- 64
2020-11-11 14:00:00 15.4 17 Sur 40 Sur 0 -- -- 65
2020-11-11 13:00:00 14.5 21 Sudoeste 44 Sur 0 -- -- 70
2020-11-11 12:00:00 13.6 27 Sudoeste 53 Sudoeste 0 -- -- 73
2020-11-11 11:00:00 12.2 24 Sudoeste 50 Sudoeste 0 -- -- 79
2020-11-11 10:00:00 11.3 26 Sudoeste 46 Sudoeste 0 -- -- 83
2020-11-11 09:00:00 10.4 20 Sudoeste 40 Sur 0 -- -- 86
2020-11-11 08:00:00 10.5 19 Sudoeste 38 Sur 0 -- -- 85
2020-11-11 07:00:00 10.5 12 Oeste 32 Sudoeste 0 -- -- 83
2020-11-11 06:00:00 10.7 14 Sudoeste 32 Sudoeste 0 -- -- 83
2020-11-11 05:00:00 10.7 14 Sudoeste 27 Sudoeste 0 -- -- 84
2020-11-11 04:00:00 8.7 2 Oeste 9 Noroeste 0 -- -- 97
2020-11-11 03:00:00 8 0 Calma 4 Oeste 0 -- -- 100
2020-11-11 02:00:00 7.5 0 Calma 4 Oeste 0 -- -- 100
2020-11-11 01:00:00 7.3 0 Calma 4 Sudoeste 0 -- -- 100
2020-11-11 00:00:00 7.3 0 Calma 0 Calma 0 -- -- 100
2020-11-10 23:00:00 7.5 0 Calma 2 Sudoeste 0 -- -- 100
2020-11-10 22:00:00 8 0 Calma 6 Sudoeste 0 -- -- 99
2020-11-10 21:00:00 8.4 0 Calma 4 Este 0 -- -- 99
2020-11-10 20:00:00 8.8 0 Calma 3 Este 0 -- -- 98
2020-11-10 19:00:00 10 0 Calma 4 Este 0 -- -- 95
2020-11-10 18:00:00 11.9 0 Calma 7 Nordeste 0 -- -- 90
2020-11-10 17:00:00 13.6 2 Sudeste 6 Sudeste 0 -- -- 81
2020-11-10 16:00:00 14.1 0 Calma 8 Este 0 -- -- 83
2020-11-10 15:00:00 13.4 2 Norte 10 Nordeste 0 -- -- 86
2020-11-10 14:00:00 13.6 2 Este 11 Este 0 -- -- 90
2020-11-10 13:00:00 13.9 4 Nordeste 12 Nordeste 0 -- -- 84
2020-11-10 12:00:00 13.6 2 Sudoeste 7 Oeste 0 -- -- 90
2020-11-10 11:00:00 11.5 0 Calma 5 Nordeste 0 -- -- 99
2020-11-10 10:00:00 10.6 0 Calma 2 Nordeste 0 -- -- 100
2020-11-10 09:00:00 9.8 0 Calma 4 Nordeste 0.4 -- -- 100
2020-11-10 08:00:00 9.3 0 Calma 8 Nordeste 0 -- -- 100
2020-11-10 07:00:00 8.8 0 Calma -- -- 0 -- -- 100
2020-11-10 06:00:00 8.3 0 Calma -- -- 0 -- -- 100
2020-11-10 05:00:00 7.9 0 Calma -- -- 0 -- -- 100
2020-11-10 04:00:00 7.7 0 Calma -- -- 0 -- -- 100
2020-11-10 03:00:00 7.3 0 Calma -- -- 0 -- -- 99
2020-11-10 02:00:00 7.7 0 Calma -- -- 0 -- -- 98
2020-11-10 01:00:00 7.9 0 Calma -- -- 0 -- -- 97
2020-11-10 00:00:00 8.3 0 Calma 2 Sudoeste 0 -- -- 95
2020-11-09 23:00:00 8.6 0 Calma -- -- 0 -- -- 95
2020-11-09 22:00:00 9.2 0 Calma -- -- 0 -- -- 93
2020-11-09 21:00:00 9.9 0 Calma -- -- 0 -- -- 89
2020-11-09 20:00:00 10.9 0 Calma -- -- 0 -- -- 84
2020-11-09 19:00:00 12.2 0 Calma 3 Sur 0 -- -- 79
2020-11-09 18:00:00 13.8 0 Calma 3 Oeste 0 -- -- 71
2020-11-09 17:00:00 16.4 2 Oeste 8 Oeste 0 -- -- 60
2020-11-09 16:00:00 16.9 0 Calma 17 Sudoeste 0 -- -- 64
2020-11-09 15:00:00 17.6 9 Sudoeste 26 Sudoeste 0 -- -- 59
2020-11-09 14:00:00 17.2 10 Sur 24 Sudoeste 0 -- -- 61
2020-11-09 13:00:00 16.6 12 Sur 30 Sudoeste 0 -- -- 61
2020-11-09 12:00:00 14 17 Sudoeste 28 Sudoeste 0 -- -- 70
2020-11-09 11:00:00 13.4 17 Sudoeste 29 Sudoeste 0 -- -- 71
2020-11-09 10:00:00 13.4 9 Sudoeste 33 Sudoeste 0 -- -- 70
2020-11-09 09:00:00 12.8 20 Sudoeste 35 Sur 0 -- -- 71
2020-11-09 08:00:00 13 18 Sur 42 Sudoeste 0 -- -- 70
2020-11-09 07:00:00 12.9 21 Sudoeste 39 Sur 0 -- -- 70
2020-11-09 06:00:00 12.8 12 Sudoeste 27 Sudoeste 0 -- -- 70
2020-11-09 05:00:00 12.8 8 Noroeste 24 Oeste 0 -- -- 69
2020-11-09 04:00:00 12.6 5 Este 10 Este 0 -- -- 69
2020-11-09 03:00:00 13 4 Este 37 Sudoeste 0 -- -- 68
2020-11-09 02:00:00 13.8 22 Sudoeste 34 Sudoeste 0 -- -- 63
2020-11-09 01:00:00 13.1 16 Sur 40 Sudoeste 0 -- -- 67
2020-11-09 00:00:00 13.3 22 Sudoeste 42 Sur 0 -- -- 67
2020-11-08 23:00:00 13.7 12 Sur 44 Sur 0 -- -- 66
2020-11-08 22:00:00 13.8 19 Sur 45 Sur 0 -- -- 66
2020-11-08 21:00:00 13.6 20 Sur 42 Sudoeste 0 -- -- 70
2020-11-08 20:00:00 13.9 19 Sur 42 Sudoeste 0 -- -- 69
2020-11-08 19:00:00 14 22 Sudoeste 38 Sur 0 -- -- 70
2020-11-08 18:00:00 14.2 15 Sudoeste 42 Sudoeste 0 -- -- 70
2020-11-08 17:00:00 14.8 13 Sudeste 47 Sudoeste 0 -- -- 68
2020-11-08 16:00:00 15.5 23 Sudoeste 44 Sudeste 0 -- -- 66
2020-11-08 15:00:00 15.4 18 Sur 41 Sur 0 -- -- 68
2020-11-08 14:00:00 14.7 20 Sur 42 Sudoeste 0 -- -- 68
2020-11-08 13:00:00 14.9 22 Sudoeste 50 Sudoeste 0 -- -- 69
2020-11-08 12:00:00 15.2 14 Sur 43 Sudoeste 0 -- -- 69
2020-11-08 11:00:00 14.4 14 Sur 42 Sur 0 -- -- 71
2020-11-08 10:00:00 13.3 22 Sur 44 Sur 0 -- -- 74
2020-11-08 09:00:00 11.8 23 Sudoeste 46 Sudoeste 0 -- -- 80
2020-11-08 08:00:00 11.7 26 Sudoeste 41 Sudoeste 0 -- -- 81
2020-11-08 07:00:00 11.7 21 Sudoeste 35 Sur 0 -- -- 83
2020-11-08 06:00:00 12.4 13 Sudoeste 29 Sudoeste 0 -- -- 79
2020-11-08 05:00:00 12.4 8 Oeste 19 Sudoeste 0 -- -- 80
2020-11-08 04:00:00 12.9 11 Sudoeste 32 Sur 0 -- -- 76
2020-11-08 03:00:00 12.3 8 Sudoeste 28 Sudoeste 0 -- -- 80
2020-11-08 02:00:00 12.5 4 Sudoeste 17 Sudoeste 0 -- -- 78
2020-11-08 01:00:00 12.9 2 Oeste 14 Oeste 0 -- -- 77
2020-11-08 00:00:00 13.1 5 Sudoeste 15 Sudoeste 0 -- -- 75
2020-11-07 23:00:00 13.7 7 Oeste 18 Oeste 0 -- -- 75
2020-11-07 22:00:00 13.9 6 Sudoeste 16 Oeste 0 -- -- 71
2020-11-07 21:00:00 13.8 8 Sudoeste 24 Sudoeste 0 -- -- 74
2020-11-07 20:00:00 14.3 11 Sudoeste 23 Sudoeste 0 -- -- 71
2020-11-07 19:00:00 13.8 5 Sudoeste 21 Sudoeste 0 -- -- 79
2020-11-07 18:00:00 14 5 Sudoeste 23 Sudoeste 0 -- -- 81
2020-11-07 17:00:00 14 9 Sudoeste 30 Sudoeste 0 -- -- 84
2020-11-07 16:00:00 14.4 13 Sur 31 Sudoeste 0 -- -- 82
2020-11-07 15:00:00 14.4 15 Sur 31 Sur 0 -- -- 81
2020-11-07 14:00:00 14.1 15 Sudoeste 31 Sur 0 -- -- 81
2020-11-07 13:00:00 13.9 17 Sudoeste 39 Sudoeste 0 -- -- 84
2020-11-07 12:00:00 13.9 15 Sudoeste 52 Sur 0 -- -- 82
2020-11-07 11:00:00 12.9 17 Sur 40 Sur 0.2 -- -- 83
2020-11-07 10:00:00 12.6 11 Sudoeste 34 Sur 1.2 -- -- 87
2020-11-07 09:00:00 13.4 10 Sur 42 Sur 0.4 -- -- 84
2020-11-07 08:00:00 14.5 6 Sudeste 23 Sudeste 3.4 -- -- 86
2020-11-07 07:00:00 16 8 Oeste 30 Sudoeste 0 -- -- 74
2020-11-07 06:00:00 16.5 12 Sur 41 Sudeste 0 -- -- 73
2020-11-07 05:00:00 16.6 18 Sur 44 Sur 0 -- -- 72
2020-11-07 04:00:00 16.9 10 Sur 36 Sudeste 0 -- -- 70
2020-11-07 03:00:00 16.8 11 Sudeste 41 Sudoeste 0 -- -- 71
2020-11-07 02:00:00 17.2 16 Sur 39 Sudeste 0 -- -- 69
2020-11-07 01:00:00 17.2 13 Sur 42 Sudeste 0 -- -- 69
2020-11-07 00:00:00 17.5 15 Sudoeste 47 Sudoeste 0 -- -- 68
2020-11-06 23:00:00 17.1 8 Sur 37 Sudeste 0 -- -- 68
2020-11-06 22:00:00 17.3 10 Sur 32 Oeste 0 -- -- 68
2020-11-06 21:00:00 17.2 8 Sudoeste 53 Sudoeste 0 -- -- 67
2020-11-06 20:00:00 17.3 21 Sur 54 Sur 0 -- -- 67
2020-11-06 19:00:00 17.1 22 Sur 51 Sudoeste 0 -- -- 68
2020-11-06 18:00:00 17.1 22 Sur 54 Sudoeste 0 -- -- 67
2020-11-06 17:00:00 17 20 Sur 48 Sudoeste 0 -- -- 69
2020-11-06 16:00:00 17.2 10 Sudeste 47 Sudoeste 0 -- -- 69
2020-11-06 15:00:00 17.8 30 Sudoeste 63 Sur 0 -- -- 66
2020-11-06 14:00:00 17.9 29 Sudoeste 55 Sudoeste 0 -- -- 68
2020-11-06 13:00:00 17 14 Sur 43 Sudoeste 0 -- -- 72
2020-11-06 12:00:00 16.9 16 Sudoeste 37 Sur 0 -- -- 72
2020-11-06 11:00:00 15.6 10 Sudeste 46 Sudoeste 0 -- -- 78
2020-11-06 10:00:00 15.1 22 Sudoeste 38 Sur 0 -- -- 79
2020-11-06 09:00:00 14.9 17 Sudoeste 47 Sur 0 -- -- 79
2020-11-06 08:00:00 14.5 28 Sudoeste 50 Sur 0 -- -- 80
2020-11-06 07:00:00 14.1 23 Sudoeste 50 Sur 0 -- -- 80
2020-11-06 06:00:00 13.3 24 Sudoeste 47 Sudoeste 0 -- -- 84
2020-11-06 05:00:00 13.1 9 Sudeste 40 Sur 0 -- -- 84
2020-11-06 04:00:00 13.2 17 Sudoeste 46 Sudoeste 0 -- -- 83
2020-11-06 03:00:00 12.7 14 Sur 35 Sudoeste 0 -- -- 86
2020-11-06 02:00:00 13.2 14 Sur 37 Sudoeste 0 -- -- 81
2020-11-06 01:00:00 12.9 10 Sudoeste 32 Oeste 0 -- -- 79
2020-11-06 00:00:00 13.6 13 Sur 38 Sudoeste 0 -- -- 73
2020-11-05 23:00:00 13.7 13 Sur 35 Sudoeste 0 -- -- 73
2020-11-05 22:00:00 13.3 14 Sudoeste 31 Sur 0 -- -- 75
2020-11-05 21:00:00 13 15 Sur 31 Sur 0 -- -- 76
2020-11-05 20:00:00 12.5 12 Sur 29 Sudoeste 0 -- -- 79
2020-11-05 19:00:00 12.3 7 Sur 19 Sudeste 0 -- -- 79
2020-11-05 18:00:00 13 3 Oeste 26 Sur 0 -- -- 74
2020-11-05 17:00:00 13.8 17 Sudoeste 31 Sudoeste 0 -- -- 70
2020-11-05 16:00:00 14.3 8 Sur 24 Sudeste 0 -- -- 67
2020-11-05 15:00:00 15.3 10 Sur 32 Sur 0 -- -- 63
2020-11-05 14:00:00 15.6 9 Sur 42 Sudoeste 0 -- -- 60
2020-11-05 13:00:00 15.4 15 Sudoeste 34 Sudoeste 0 -- -- 59
2020-11-05 12:00:00 14.9 12 Sur 30 Sur 0 -- -- 59
2020-11-05 11:00:00 11.8 4 Sudoeste 6 Sudoeste 0 -- -- 82
2020-11-05 10:00:00 7.8 0 Calma 3 Sudoeste 0 -- -- 99
2020-11-05 09:00:00 4.6 0 Calma 2 Sudoeste 0 -- -- 100
2020-11-05 08:00:00 4.1 0 Calma 2 Sudoeste 0 -- -- 100
2020-11-05 07:00:00 4.3 0 Calma 3 Sudoeste 0 -- -- 99
2020-11-05 06:00:00 4.9 0 Calma 5 Sudoeste 0 -- -- 98
2020-11-05 05:00:00 4.8 2 Sudoeste 3 Sudoeste 0 -- -- 100
2020-11-05 04:00:00 4.9 0 Calma 3 Sudoeste 0 -- -- 98
2020-11-05 03:00:00 5.8 0 Calma 3 Sudoeste 0 -- -- 97
2020-11-05 02:00:00 5.8 0 Calma 2 Sudoeste 0 -- -- 97
2020-11-05 01:00:00 5.9 0 Calma 6 Sudoeste 0 -- -- 94
2020-11-05 00:00:00 6.1 0 Calma 6 Norte 0 -- -- 91
2020-11-04 23:00:00 6.2 0 Calma 4 Norte 0 -- -- 94
2020-11-04 22:00:00 6.5 0 Calma 6 Norte 0 -- -- 96
2020-11-04 21:00:00 6.5 0 Calma 5 Norte 0 -- -- 95
2020-11-04 20:00:00 6.5 0 Calma 5 Norte 0 -- -- 95
2020-11-04 19:00:00 6.6 2 Nordeste 11 Este 0.2 -- -- 94
2020-11-04 18:00:00 7 0 Calma 12 Nordeste 0 -- -- 91
2020-11-04 17:00:00 7.5 2 Norte 10 Nordeste 0 -- -- 87
2020-11-04 16:00:00 7.9 2 Norte 15 Nordeste 0 -- -- 82
2020-11-04 15:00:00 8.4 4 Nordeste 17 Este 0 -- -- 80
2020-11-04 14:00:00 8.5 5 Este 13 Este 0 -- -- 79
2020-11-04 13:00:00 8.6 3 Nordeste 13 Este 0 -- -- 79
2020-11-04 12:00:00 8.1 2 Nordeste 14 Norte 0 -- -- 83
2020-11-04 11:00:00 7.1 0 Calma 8 Noroeste 0 -- -- 100
2020-11-04 10:00:00 4.2 0 Calma 5 Norte 0 -- -- 100
2020-11-04 09:00:00 3.1 0 Calma 2 Norte 0 -- -- 100
2020-11-04 08:00:00 3 0 Calma 3 Norte 0 -- -- 100
2020-11-04 07:00:00 3.3 0 Calma 2 Este 0 -- -- 100
2020-11-04 06:00:00 4 0 Calma 4 Norte 0 -- -- 100
2020-11-04 05:00:00 4.6 0 Calma 0 Calma 0 -- -- 100
2020-11-04 04:00:00 4.8 0 Calma -- -- 0 -- -- 100
2020-11-04 03:00:00 5.8 0 Calma 5 Este 0.4 -- -- 100
2020-11-04 02:00:00 5.7 2 Este 5 Nordeste 0.2 -- -- 100
2020-11-04 01:00:00 5.5 0 Calma 2 Nordeste 0 -- -- 100
2020-11-04 00:00:00 6.3 0 Calma 7 Este 0.4 -- -- 100
2020-11-03 23:00:00 6.3 0 Calma 9 Noroeste 0 -- -- 100
2020-11-03 22:00:00 6.9 2 Sudeste 5 Sur 0.2 -- -- 100
2020-11-03 21:00:00 7.1 0 Calma 8 Sudeste 0 -- -- 100
2020-11-03 20:00:00 7.5 0 Calma 9 Nordeste 0.2 -- -- 100
2020-11-03 19:00:00 7.6 3 Este 17 Este 1 -- -- 99
2020-11-03 18:00:00 8.1 5 Sur 18 Oeste 0.6 -- -- 99
2020-11-03 17:00:00 8.7 2 Sudeste 19 Este 0.4 -- -- 99
2020-11-03 16:00:00 8.9 5 Sur 22 Norte 2 -- -- 98
2020-11-03 15:00:00 9.7 5 Sudeste 15 Este 2 -- -- 98
2020-11-03 14:00:00 10.2 4 Norte 13 Norte 0.6 -- -- 98
2020-11-03 13:00:00 10.7 4 Este 10 Este 0 -- -- 96
2020-11-03 12:00:00 10.6 3 Sudeste 9 Noroeste 0 -- -- 94
2020-11-03 11:00:00 10.1 2 Sudeste 8 Sudeste 0 -- -- 100
2020-11-03 10:00:00 9.4 0 Calma 12 Sur 0.2 -- -- 100
2020-11-03 09:00:00 8.9 4 Sudoeste 13 Este 0.6 -- -- 100
2020-11-03 08:00:00 8.9 2 Este 4 Este 0 -- -- 100
2020-11-03 07:00:00 8.9 2 Este 11 Norte 0.8 -- -- 98
2020-11-03 06:00:00 9.2 3 Norte 11 Norte 0.8 -- -- 99
2020-11-03 05:00:00 9.7 3 Sur 6 Sur 0.2 -- -- 100
2020-11-03 04:00:00 9.7 2 Este 9 Este 0.4 -- -- 99
2020-11-03 03:00:00 9.8 2 Sudeste 13 Sudeste 0.2 -- -- 99
2020-11-03 02:00:00 10.5 2 Sur 7 Sur 0.4 -- -- 100
2020-11-03 01:00:00 10.7 0 Calma 5 Este 0 -- -- 100
2020-11-03 00:00:00 10.8 0 Calma 9 Este 0.2 -- -- 99
2020-11-02 23:00:00 11 0 Calma 3 Este 0 -- -- 99
2020-11-02 22:00:00 11.1 0 Calma 7 Este 0.2 -- -- 99
2020-11-02 21:00:00 11.2 2 Sudeste 7 Sudeste 0 -- -- 98
2020-11-02 20:00:00 11.5 4 Sudoeste 13 Este 0.4 -- -- 97
2020-11-02 19:00:00 12.1 5 Nordeste 17 Este 1 -- -- 97
2020-11-02 18:00:00 13.4 4 Este 22 Noroeste 0.4 -- -- 95
2020-11-02 17:00:00 14.8 8 Sur 28 Norte 0 -- -- 93
2020-11-02 16:00:00 20.7 4 Oeste 9 Sudoeste 0 -- -- 56
2020-11-02 15:00:00 20.7 0 Calma 10 Sudoeste 0 -- -- 55
2020-11-02 14:00:00 20.3 5 Sudoeste 17 Oeste 0 -- -- 56
2020-11-02 13:00:00 19.7 9 Oeste 30 Sudoeste 0 -- -- 56
2020-11-02 12:00:00 20.2 16 Sudoeste 33 Sur 0 -- -- 55
2020-11-02 11:00:00 19.2 11 Sudoeste 24 Sur 0 -- -- 59
2020-11-02 10:00:00 17.8 7 Sudoeste 18 Sudoeste 0 -- -- 65
2020-11-02 09:00:00 16.7 9 Sudoeste 20 Sudoeste 0 -- -- 67
2020-11-02 08:00:00 16.7 10 Sudoeste 25 Oeste 0 -- -- 64
2020-11-02 07:00:00 17.2 12 Oeste 32 Sudoeste 0 -- -- 61
2020-11-02 06:00:00 17.3 18 Sudoeste 35 Sudoeste 0 -- -- 61
2020-11-02 05:00:00 17.4 15 Sudoeste 36 Sudoeste 0 -- -- 60
2020-11-02 04:00:00 17.4 18 Sudoeste 37 Sudoeste 0 -- -- 62
2020-11-02 03:00:00 17.6 13 Sudoeste 28 Sudoeste 0 -- -- 63
2020-11-02 02:00:00 18.1 9 Sudoeste 31 Sur 0 -- -- 65
2020-11-02 01:00:00 18.4 13 Sudoeste 30 Sur 0 -- -- 64
2020-11-02 00:00:00 18.1 9 Sudoeste 31 Sudoeste 0 -- -- 66
2020-11-01 23:00:00 18.2 13 Sudoeste 32 Sudoeste 0 -- -- 65
2020-11-01 22:00:00 17.9 8 Sudoeste 16 Oeste 0 -- -- 68
2020-11-01 21:00:00 18.6 8 Oeste 27 Sudoeste 0 -- -- 65
2020-11-01 20:00:00 18.3 14 Sudoeste 25 Sudoeste 0 -- -- 69
2020-11-01 19:00:00 18.7 13 Sudoeste 22 Sudoeste 0 -- -- 66
2020-11-01 18:00:00 19.6 8 Oeste 19 Sur 0 -- -- 66
2020-11-01 17:00:00 20.5 7 Sudoeste 18 Sudoeste 0 -- -- 63
2020-11-01 16:00:00 21.7 8 Sudoeste 21 Sur 0 -- -- 59
2020-11-01 15:00:00 22.3 11 Sudoeste 18 Sudoeste 0 -- -- 56
2020-11-01 14:00:00 22.6 8 Sudoeste 18 Sudoeste 0 -- -- 54
2020-11-01 13:00:00 21.5 12 Sudoeste 19 Sudoeste 0 -- -- 54
2020-11-01 12:00:00 20.8 7 Sudoeste 13 Sudoeste 0 -- -- 57
2020-11-01 11:00:00 18.5 8 Sudoeste 12 Sudoeste 0 -- -- 63
2020-11-01 10:00:00 17.4 7 Sudoeste 11 Sudoeste 0 -- -- 68
2020-11-01 09:00:00 14.6 2 Oeste 8 Oeste 0 -- -- 79
2020-11-01 08:00:00 13.5 0 Calma 10 Noroeste 0 -- -- 79
2020-11-01 07:00:00 13.8 3 Oeste 9 Sudoeste 0 -- -- 77
2020-11-01 06:00:00 14.1 5 Oeste 11 Noroeste 0 -- -- 74
2020-11-01 05:00:00 14.8 3 Sudoeste 15 Sudoeste 0 -- -- 73
2020-11-01 04:00:00 14.1 6 Sudoeste 12 Oeste 0 -- -- 77
2020-11-01 03:00:00 13.8 0 Calma 12 Sudoeste 0 -- -- 79
2020-11-01 02:00:00 14.8 4 Sudoeste 11 Oeste 0 -- -- 75
2020-11-01 01:00:00 14.4 4 Oeste 15 Sudoeste 0 -- -- 77
2020-11-01 00:00:00 12.5 0 Calma 2 Noroeste 0 -- -- 86
2020-10-31 23:00:00 12.8 0 Calma 3 Noroeste 0 -- -- 81
2020-10-31 22:00:00 13 0 Calma 2 Noroeste 0 -- -- 80
2020-10-31 21:00:00 13.1 0 Calma 3 Noroeste 0 -- -- 79
2020-10-31 20:00:00 13.4 0 Calma 5 Noroeste 0 -- -- 75
2020-10-31 19:00:00 14.9 0 Calma 3 Noroeste 0 -- -- 70
2020-10-31 18:00:00 16.9 0 Calma 4 Noroeste 0 -- -- 62
2020-10-31 17:00:00 21.2 2 Noroeste 18 Noroeste 0 -- -- 46
2020-10-31 16:00:00 22 8 Oeste 23 Noroeste 0 -- -- 40
2020-10-31 15:00:00 22.1 8 Oeste 26 Noroeste 0 -- -- 37
2020-10-31 14:00:00 22.7 0 Calma 23 Sur 0 -- -- 37
2020-10-31 13:00:00 21.8 12 Sudoeste 25 Sudoeste 0 -- -- 44
2020-10-31 12:00:00 20.8 15 Sudoeste 30 Sudoeste 0 -- -- 44
2020-10-31 11:00:00 19.5 13 Sudoeste 27 Sudoeste 0 -- -- 46
2020-10-31 10:00:00 18.1 7 Sudoeste 15 Sudoeste 0 -- -- 53
2020-10-31 09:00:00 15.3 9 Oeste 26 Oeste 0 -- -- 59
2020-10-31 08:00:00 15.3 8 Oeste 20 Sudoeste 0 -- -- 59
2020-10-31 07:00:00 16.1 9 Oeste 23 Oeste 0 -- -- 56
2020-10-31 06:00:00 14.8 8 Oeste 21 Noroeste 0 -- -- 60
2020-10-31 05:00:00 15.1 10 Oeste 28 Sudoeste 0 -- -- 59
2020-10-31 04:00:00 14.8 13 Sudoeste 30 Oeste 0 -- -- 61
2020-10-31 03:00:00 15.3 8 Oeste 23 Sudoeste 0 -- -- 59
2020-10-31 02:00:00 15.1 10 Oeste 24 Oeste 0 -- -- 60
2020-10-31 01:00:00 15 9 Noroeste 21 Oeste 0 -- -- 61
2020-10-31 00:00:00 15.3 15 Sudoeste 23 Sudoeste 0 -- -- 58
2020-10-30 23:00:00 15.4 15 Sudoeste 28 Sudoeste 0 -- -- 58
2020-10-30 22:00:00 15.8 8 Oeste 16 Oeste 0 -- -- 57
2020-10-30 21:00:00 15.8 9 Oeste 19 Oeste 0 -- -- 57
2020-10-30 20:00:00 15.1 11 Sudoeste 19 Sudoeste 0 -- -- 62
2020-10-30 19:00:00 13.7 2 Sudoeste 10 Oeste 0 -- -- 72
2020-10-30 18:00:00 16.3 0 Calma 13 Oeste 0 -- -- 63
2020-10-30 17:00:00 19.2 8 Sudoeste 15 Sudoeste 0 -- -- 52
2020-10-30 16:00:00 21.1 5 Sudoeste 14 Sudoeste 0 -- -- 50
2020-10-30 15:00:00 21 7 Sudoeste 17 Sur 0 -- -- 49
2020-10-30 14:00:00 20.2 12 Sudoeste 28 Sudoeste 0 -- -- 50
2020-10-30 13:00:00 19.5 12 Sudoeste 27 Oeste 0 -- -- 53
2020-10-30 12:00:00 18.8 11 Sudoeste 22 Sudoeste 0 -- -- 56
2020-10-30 11:00:00 17.6 11 Sudoeste 31 Sudoeste 0 -- -- 59
2020-10-30 10:00:00 16.3 9 Sudoeste 22 Sudoeste 0 -- -- 62
2020-10-30 09:00:00 13.9 10 Sudoeste 23 Sudoeste 0 -- -- 71
2020-10-30 08:00:00 13.7 7 Sudoeste 27 Sudoeste 0 -- -- 72
2020-10-30 07:00:00 13.3 7 Sur 22 Sudeste 0 -- -- 73
2020-10-30 06:00:00 12.3 2 Norte 28 Sudeste 0 -- -- 78
2020-10-30 05:00:00 13.4 8 Sur 20 Sudoeste 0 -- -- 72
2020-10-30 04:00:00 13.7 6 Sur 22 Sur 0 -- -- 70
2020-10-30 03:00:00 14.5 7 Oeste 23 Sur 0 -- -- 66
2020-10-30 02:00:00 15 7 Noroeste 36 Oeste 0 -- -- 64
2020-10-30 01:00:00 15.1 10 Oeste 30 Oeste 0 -- -- 64
2020-10-30 00:00:00 14.3 8 Oeste 19 Oeste 0 -- -- 68